sim
Sign-in with your pilot id or email,
or register
Callsign
Passwort

Schedule Details

Flight Number: OEC87764
Departure: Berlin Tegel Airport (EDDT) at 08:00 UTC
Arrival: Fuerteventura Airport (GCFV) at 12:05 UTC

Weather Information
Getting current METAR information for EDDT 212150Z 08005KT 050V120 CAVOK 13/01 Q1020
Getting current METAR information for GCFV 212130Z 34010KT 300V360 9999 SCT029 19/13 Q1015

Schedule Frequency

Route Map